createdAt,value
2023-05-27T00:02:08.006Z,4.1
2023-05-27T00:07:07.997Z,3.1
2023-05-27T00:12:08.008Z,3.5
2023-05-27T00:17:08.022Z,3.4
2023-05-27T00:22:08.004Z,3.1
2023-05-27T00:27:08.004Z,3.5
2023-05-27T00:32:08.044Z,3.4
2023-05-27T00:37:08.004Z,3.5
2023-05-27T00:42:08.012Z,3.5
2023-05-27T00:47:08.001Z,3.2
2023-05-27T00:52:08.024Z,3.6
2023-05-27T00:57:08.021Z,3.4
2023-05-27T01:02:08.078Z,3.3
2023-05-27T01:07:08.030Z,3.2
2023-05-27T01:12:08.024Z,3.6
2023-05-27T01:17:08.099Z,3.2
2023-05-27T01:22:08.025Z,3.6
2023-05-27T01:27:08.027Z,3.3
2023-05-27T01:32:08.027Z,3.5
2023-05-27T01:37:08.017Z,3.4
2023-05-27T01:42:08.030Z,3.7
2023-05-27T01:47:08.112Z,3.3
2023-05-27T01:52:08.032Z,3.3
2023-05-27T01:57:08.038Z,3.0
2023-05-27T02:02:08.029Z,3.8
2023-05-27T02:07:08.040Z,3.5
2023-05-27T02:12:08.045Z,3.5
2023-05-27T02:17:08.071Z,3.6
2023-05-27T02:22:08.030Z,3.4
2023-05-27T02:27:08.044Z,4.0
2023-05-27T02:32:08.061Z,3.5
2023-05-27T02:37:08.045Z,4.0
2023-05-27T02:42:08.043Z,4.0
2023-05-27T02:47:08.040Z,4.1
2023-05-27T02:52:08.048Z,4.1
2023-05-27T02:57:08.044Z,3.5
2023-05-27T03:02:08.174Z,3.8
2023-05-27T03:07:08.049Z,3.9
2023-05-27T03:12:08.045Z,3.9
2023-05-27T03:17:08.051Z,3.8
2023-05-27T03:22:08.049Z,3.9
2023-05-27T03:27:08.065Z,3.7
2023-05-27T03:32:08.156Z,4.2
2023-05-27T03:37:08.066Z,3.9
2023-05-27T03:42:08.049Z,4.4
2023-05-27T03:47:08.058Z,4.6
2023-05-27T03:52:08.073Z,4.3
2023-05-27T03:57:08.073Z,4.4
2023-05-27T04:02:08.112Z,4.2
2023-05-27T04:07:08.067Z,5.1
2023-05-27T04:12:08.077Z,4.3
2023-05-27T04:17:08.078Z,4.5
2023-05-27T04:22:08.088Z,4.6
2023-05-27T04:27:08.072Z,4.2
2023-05-27T04:32:08.186Z,4.7
2023-05-27T04:37:08.066Z,4.3
2023-05-27T04:42:08.074Z,4.6
2023-05-27T04:47:08.095Z,6.0
2023-05-27T04:52:08.146Z,3.9
2023-05-27T04:57:08.081Z,4.4
2023-05-27T05:02:08.087Z,4.4
2023-05-27T05:07:08.097Z,4.8
2023-05-27T05:12:08.105Z,4.2
2023-05-27T05:17:08.081Z,5.0
2023-05-27T05:22:08.092Z,4.9
2023-05-27T05:27:08.106Z,4.6
2023-05-27T05:32:08.185Z,4.5
2023-05-27T05:37:08.094Z,4.6
2023-05-27T05:42:08.102Z,5.0
2023-05-27T05:47:08.100Z,4.5
2023-05-27T05:52:08.106Z,5.1
2023-05-27T05:57:08.113Z,4.7
2023-05-27T06:02:08.110Z,3.8
2023-05-27T06:07:08.104Z,4.5
2023-05-27T06:12:08.121Z,4.7
2023-05-27T06:17:08.119Z,4.5
2023-05-27T06:22:08.117Z,4.6
2023-05-27T06:27:08.137Z,4.3
2023-05-27T06:32:08.198Z,4.6
2023-05-27T06:37:08.149Z,4.8
2023-05-27T06:42:08.169Z,4.5
2023-05-27T06:47:08.133Z,4.7
2023-05-27T06:52:10.229Z,4.2
2023-05-27T06:57:08.148Z,5.0
2023-05-27T07:02:08.152Z,5.0
2023-05-27T07:07:08.151Z,4.9
2023-05-27T07:12:08.180Z,4.7
2023-05-27T07:17:08.156Z,5.1
2023-05-27T07:22:08.157Z,4.8
2023-05-27T07:27:08.193Z,4.7
2023-05-27T07:32:08.164Z,4.9
2023-05-27T07:37:08.174Z,4.7
2023-05-27T07:42:08.165Z,4.8
2023-05-27T07:47:08.166Z,5.3
2023-05-27T07:52:08.175Z,4.8
2023-05-27T07:57:08.180Z,5.3
2023-05-27T08:02:08.212Z,4.9
2023-05-27T08:07:08.174Z,5.1
2023-05-27T08:12:08.183Z,5.4
2023-05-27T08:17:08.220Z,5.0
2023-05-27T08:22:08.186Z,5.0
2023-05-27T08:27:08.199Z,5.2
2023-05-27T08:32:08.322Z,5.1
2023-05-27T08:37:08.196Z,5.3
2023-05-27T08:42:08.202Z,5.4
2023-05-27T08:47:08.214Z,5.9
2023-05-27T08:52:08.225Z,5.4
2023-05-27T08:57:08.239Z,4.7
2023-05-27T09:02:08.269Z,5.6
2023-05-27T09:07:08.219Z,5.0
2023-05-27T09:12:08.217Z,4.9
2023-05-27T09:17:08.219Z,4.3
2023-05-27T09:22:08.224Z,5.3
2023-05-27T09:27:08.228Z,5.5
2023-05-27T09:32:08.228Z,5.0
2023-05-27T09:37:08.235Z,4.1
2023-05-27T09:42:08.240Z,4.8
2023-05-27T09:47:08.247Z,4.7
2023-05-27T09:52:08.238Z,4.5
2023-05-27T09:57:08.250Z,4.5
2023-05-27T10:02:08.247Z,3.7
2023-05-27T10:07:08.531Z,3.9
2023-05-27T10:12:08.241Z,4.5
2023-05-27T10:17:08.362Z,3.9
2023-05-27T10:22:08.262Z,4.2
2023-05-27T10:27:08.256Z,4.1
2023-05-27T10:32:08.265Z,3.6
2023-05-27T10:37:08.299Z,3.8
2023-05-27T10:42:08.286Z,4.1
2023-05-27T10:47:08.330Z,3.6
2023-05-27T10:52:08.267Z,4.0
2023-05-27T10:57:08.272Z,3.3
2023-05-27T11:02:08.383Z,3.2
2023-05-27T11:07:08.294Z,3.4
2023-05-27T11:12:08.300Z,3.3
2023-05-27T11:17:08.289Z,3.1
2023-05-27T11:22:08.295Z,3.4
2023-05-27T11:27:08.291Z,3.5
2023-05-27T11:32:08.309Z,3.7
2023-05-27T11:37:08.298Z,2.8
2023-05-27T11:42:08.304Z,2.8
2023-05-27T11:47:08.304Z,3.2
2023-05-27T11:52:08.308Z,3.2
2023-05-27T11:57:08.319Z,3.3
2023-05-27T12:02:08.374Z,3.2
2023-05-27T12:07:16.324Z,3.3
2023-05-27T12:12:08.316Z,3.4
2023-05-27T12:17:08.325Z,3.3
2023-05-27T12:22:08.338Z,3.1
2023-05-27T12:27:08.328Z,3.3
2023-05-27T12:32:08.326Z,3.4
2023-05-27T12:37:09.625Z,3.3
2023-05-27T12:42:08.331Z,3.3
2023-05-27T12:47:08.470Z,3.6
2023-05-27T12:52:08.339Z,3.5
2023-05-27T12:57:08.330Z,4.4
2023-05-27T13:02:08.348Z,3.4
2023-05-27T13:07:08.354Z,3.7
2023-05-27T13:12:08.372Z,4.3
2023-05-27T13:17:08.421Z,3.5
2023-05-27T13:22:08.367Z,4.0
2023-05-27T13:27:08.350Z,3.9
2023-05-27T13:32:08.428Z,4.1
2023-05-27T13:42:08.358Z,3.8
2023-05-27T13:47:08.364Z,3.5
2023-05-27T13:52:08.357Z,3.8
2023-05-27T13:57:08.400Z,3.4
2023-05-27T14:02:08.413Z,3.1
2023-05-27T14:07:08.368Z,3.6
2023-05-27T14:12:08.370Z,3.2
2023-05-27T14:17:08.380Z,3.4
2023-05-27T14:22:08.377Z,3.7
2023-05-27T14:27:08.383Z,3.6
2023-05-27T14:32:08.524Z,3.8
2023-05-27T14:37:09.598Z,3.3
2023-05-27T14:42:08.396Z,3.1
2023-05-27T14:47:08.441Z,3.1
2023-05-27T14:52:08.399Z,3.5
2023-05-27T14:57:08.396Z,4.0
2023-05-27T15:02:08.393Z,3.3
2023-05-27T15:07:08.413Z,3.7
2023-05-27T15:12:08.399Z,3.5
2023-05-27T15:17:08.470Z,3.2
2023-05-27T15:22:08.417Z,3.1
2023-05-27T15:27:08.421Z,3.2
2023-05-27T15:32:08.411Z,3.3
2023-05-27T15:37:08.416Z,3.2
2023-05-27T15:42:08.430Z,3.4
2023-05-27T15:47:08.522Z,3.2
2023-05-27T15:52:08.426Z,3.4
2023-05-27T15:57:08.457Z,3.1
2023-05-27T16:02:08.535Z,3.4
2023-05-27T16:07:08.437Z,3.2
2023-05-27T16:12:08.514Z,3.4
2023-05-27T16:17:08.441Z,3.3
2023-05-27T16:22:08.454Z,3.3
2023-05-27T16:27:08.445Z,3.3
2023-05-27T16:32:08.656Z,3.5
2023-05-27T16:37:08.486Z,3.3
2023-05-27T16:42:08.455Z,2.8
2023-05-27T16:47:08.446Z,3.3
2023-05-27T16:52:08.451Z,3.5
2023-05-27T16:57:08.465Z,3.3
2023-05-27T17:02:08.460Z,2.9
2023-05-27T17:07:08.460Z,3.2
2023-05-27T17:12:08.470Z,3.2
2023-05-27T17:17:08.480Z,3.4
2023-05-27T17:22:08.463Z,3.7
2023-05-27T17:27:08.472Z,2.8
2023-05-27T17:32:08.465Z,3.0
2023-05-27T17:37:08.481Z,3.2
2023-05-27T17:42:08.494Z,3.1
2023-05-27T17:47:08.538Z,3.1
2023-05-27T17:52:20.398Z,3.6
2023-05-27T17:57:08.481Z,3.4
2023-05-27T18:02:08.512Z,3.3
2023-05-27T18:07:08.485Z,3.2
2023-05-27T18:12:08.483Z,2.9
2023-05-27T18:17:08.482Z,3.2
2023-05-27T18:22:08.501Z,3.3
2023-05-27T18:27:08.488Z,3.5
2023-05-27T18:32:08.492Z,3.8
2023-05-27T18:37:08.489Z,3.8
2023-05-27T18:42:08.517Z,3.4
2023-05-27T18:47:08.524Z,3.4
2023-05-27T18:52:08.492Z,3.4
2023-05-27T18:57:08.509Z,3.5
2023-05-27T19:02:08.501Z,3.2
2023-05-27T19:07:08.504Z,3.8
2023-05-27T19:17:08.524Z,3.9
2023-05-27T19:22:08.500Z,3.8
2023-05-27T19:27:08.501Z,3.8
2023-05-27T19:32:08.555Z,4.3
2023-05-27T19:37:08.506Z,4.5
2023-05-27T19:42:08.504Z,4.1
2023-05-27T19:47:08.714Z,4.0
2023-05-27T19:52:08.525Z,4.3
2023-05-27T19:57:08.497Z,4.1
2023-05-27T20:02:08.553Z,4.0
2023-05-27T20:07:08.525Z,4.2
2023-05-27T20:12:08.609Z,4.0
2023-05-27T20:17:08.634Z,4.5
2023-05-27T20:22:08.514Z,4.4
2023-05-27T20:27:08.582Z,4.5
2023-05-27T20:32:08.527Z,5.1
2023-05-27T20:37:08.541Z,4.9
2023-05-27T20:42:08.528Z,5.2
2023-05-27T20:47:08.531Z,4.9
2023-05-27T20:52:08.524Z,5.4
2023-05-27T20:57:08.545Z,5.8
2023-05-27T21:02:08.602Z,4.9
2023-05-27T21:07:08.549Z,5.5
2023-05-27T21:12:08.538Z,5.4
2023-05-27T21:17:08.543Z,5.4
2023-05-27T21:22:08.539Z,5.4
2023-05-27T21:27:10.367Z,5.6
2023-05-27T21:32:08.668Z,5.8
2023-05-27T21:37:08.553Z,5.6
2023-05-27T21:42:08.547Z,5.1
2023-05-27T21:47:08.592Z,5.6
2023-05-27T21:52:08.534Z,6.4
2023-05-27T21:57:08.544Z,6.8
2023-05-27T22:02:08.566Z,5.8
2023-05-27T22:07:08.546Z,5.7
2023-05-27T22:12:08.543Z,5.9
2023-05-27T22:17:08.548Z,5.8
2023-05-27T22:22:08.544Z,7.0
2023-05-27T22:27:08.568Z,6.5
2023-05-27T22:32:08.557Z,5.8
2023-05-27T22:37:08.546Z,6.7
2023-05-27T22:42:08.574Z,5.8
2023-05-27T22:47:08.618Z,6.4
2023-05-27T22:52:08.562Z,6.5
2023-05-27T22:57:08.561Z,6.9
2023-05-27T23:02:08.653Z,6.5
2023-05-27T23:07:08.563Z,6.2
2023-05-27T23:12:08.575Z,6.7
2023-05-27T23:17:08.580Z,6.3
2023-05-27T23:22:08.584Z,6.9
2023-05-27T23:27:08.571Z,6.8
2023-05-27T23:32:08.591Z,7.2
2023-05-27T23:37:08.576Z,6.6
2023-05-27T23:42:08.581Z,7.3
2023-05-27T23:47:08.565Z,6.5
2023-05-27T23:52:08.602Z,7.3
2023-05-27T23:57:08.575Z,7.3
